Jamestown, Mississippi
Current Conditions -  °F | °C
As of 2:53 PM on Sunday 23 Nov 2014 (Local Time) from KMCB Reporting Station
Scattered Clouds Scattered Clouds  
Wind Chill: 72°   Ceiling: Unl
Heat Index: 72°   Visibility: 10mi
Dew Point: 59°   Wind: 13mph
Humidity: 64%   Direction: 210°SSW
Pressure: 29.57"   Gusts: 21mph
Location:  31.274°N, 89.9542°W
Report Text: KMCB 232053Z AUTO 21011G18KT 10SM SCT033 22/15 A2957 RMK AO2 PK WND 21027/2002 SLP007 T02220150 56018
Loading
Personal Weather Stations






























Interactive Weather Map New forecast layout! Learn more

10-Day Weather Forecast

Advertisements
Track Severe Weather on mobile